首页
METAR-TAF:

METAR-TAF

机场 :

下诺夫哥罗德, 俄罗斯

纬度: 56-19-48N, 经度: 044-00E, 海拔: 78米

当前天气观测

该预报发布于33分钟前的03:00 UTC
风速4节,风向
温度 14°C
湿度 94%
气压 1013 hPa
能见度10公里或以上
1500米以下无云,无积雨云

METAR: UWGG 050300Z 17002MPS CAVOK 14/13 Q1013 R18L/190060 NOSIG

时间: 06:33 (03:33 UTC)

预报

该预报发布于1小时和37分钟前的01:56 UTC
预报有效从05日的 03点(UTC)到 06日的 03点(UTC)
风速6节,风向南转南东
能见度10公里或以上
多云层高于3000英尺
短暂存在
从 05日的 06点(UTC)到 05日的 18点(UTC)
风速12节,风向,有时为27节阵风
能見度: 5000
多云层高于1500英尺, 积雨云.
小阵雨

TAF: UWGG 050156Z 0503/0603 16003MPS 9999 BKN030 TX20/0515Z TN11/0503Z TEMPO 0506/0518 17006G14MPS 5000 -SHRA BKN015CB

超过4000个机场的气象观测和天气预报(METAR&TAF报告)。

可查询的气象台以黄色和红色小点在地图上表示。

将鼠标移到小点上方,可查看气象台名称。

然后点击查看天气观测和预报。

如需切换地图:点击带黑十字的绿色按钮放大地图;点击带横线的绿色按钮缩小地图;或者点击绿色箭头查看邻近地区的地图。


METAR-TAF: